createdAt,value
2023-04-07T00:01:53.592Z,58.40
2023-04-07T00:04:39.740Z,58.70
2023-04-07T00:07:26.290Z,58.90
2023-04-07T00:10:12.527Z,58.90
2023-04-07T00:12:58.625Z,59.50
2023-04-07T00:15:44.662Z,59.80
2023-04-07T00:18:30.442Z,60.70
2023-04-07T00:21:16.599Z,60.60
2023-04-07T00:24:03.000Z,60.40
2023-04-07T00:26:48.888Z,60.10
2023-04-07T00:29:34.760Z,60.30
2023-04-07T00:32:20.923Z,60.30
2023-04-07T00:35:07.356Z,60.90
2023-04-07T00:37:53.330Z,60.70
2023-04-07T00:40:39.293Z,61.00
2023-04-07T00:43:25.745Z,61.80
2023-04-07T00:46:12.823Z,62.00
2023-04-07T00:48:58.883Z,62.00
2023-04-07T00:51:47.073Z,62.40
2023-04-07T00:54:33.410Z,62.60
2023-04-07T00:57:19.340Z,62.40
2023-04-07T01:00:06.855Z,62.30
2023-04-07T01:03:01.799Z,62.50
2023-04-07T01:06:06.744Z,62.60
2023-04-07T01:09:02.313Z,62.60
2023-04-07T01:11:58.744Z,62.40
2023-04-07T01:14:54.284Z,63.00
2023-04-07T01:18:01.638Z,62.90
2023-04-07T01:20:51.413Z,62.90
2023-04-07T01:23:57.133Z,63.30
2023-04-07T01:26:44.087Z,62.60
2023-04-07T01:29:41.561Z,62.60
2023-04-07T01:32:29.058Z,62.80
2023-04-07T01:35:16.523Z,63.30
2023-04-07T01:38:05.365Z,63.40
2023-04-07T01:40:52.513Z,63.20
2023-04-07T01:43:41.766Z,63.60
2023-04-07T01:46:28.564Z,63.60
2023-04-07T01:49:15.660Z,63.80
2023-04-07T01:52:02.283Z,64.10
2023-04-07T01:54:49.832Z,63.90
2023-04-07T01:57:36.117Z,64.90
2023-04-07T02:00:29.155Z,64.70
2023-04-07T02:03:23.755Z,65.40
2023-04-07T02:06:15.440Z,64.40
2023-04-07T02:09:07.892Z,64.90
2023-04-07T02:11:58.289Z,64.60
2023-04-07T02:14:45.736Z,64.70
2023-04-07T02:17:38.094Z,65.20
2023-04-07T02:20:25.338Z,65.40
2023-04-07T02:23:12.751Z,66.20
2023-04-07T02:25:59.232Z,66.40
2023-04-07T02:28:45.192Z,66.60
2023-04-07T02:31:31.492Z,67.10
2023-04-07T02:34:20.587Z,66.90
2023-04-07T02:37:06.684Z,68.00
2023-04-07T02:39:53.568Z,67.60
2023-04-07T02:42:40.102Z,67.20
2023-04-07T02:45:26.512Z,67.80
2023-04-07T02:48:12.315Z,68.00
2023-04-07T02:50:59.146Z,68.70
2023-04-07T02:53:45.282Z,68.90
2023-04-07T02:56:32.726Z,69.30
2023-04-07T02:59:19.283Z,69.50
2023-04-07T03:02:06.018Z,69.90
2023-04-07T03:04:53.452Z,70.60
2023-04-07T03:07:44.030Z,71.20
2023-04-07T03:10:30.386Z,71.90
2023-04-07T03:13:19.104Z,72.30
2023-04-07T03:16:05.175Z,73.00
2023-04-07T03:18:59.211Z,73.50
2023-04-07T03:21:46.514Z,74.00
2023-04-07T03:24:32.759Z,74.10
2023-04-07T03:27:20.294Z,74.60
2023-04-07T03:30:08.734Z,75.00
2023-04-07T03:32:54.732Z,75.30
2023-04-07T03:35:42.355Z,75.60
2023-04-07T03:38:30.633Z,75.60
2023-04-07T03:41:21.142Z,75.90
2023-04-07T03:44:07.063Z,76.30
2023-04-07T03:46:56.250Z,76.70
2023-04-07T03:49:43.775Z,77.00
2023-04-07T03:52:30.274Z,77.40
2023-04-07T03:55:23.278Z,77.80
2023-04-07T03:58:16.905Z,78.10
2023-04-07T04:01:06.070Z,78.50
2023-04-07T04:03:53.238Z,79.20
2023-04-07T04:06:51.208Z,79.30
2023-04-07T04:09:43.363Z,80.10
2023-04-07T04:12:31.049Z,80.60
2023-04-07T04:15:25.341Z,80.70
2023-04-07T04:18:11.807Z,81.10
2023-04-07T04:20:58.678Z,81.50
2023-04-07T04:23:45.993Z,81.50
2023-04-07T04:26:32.511Z,82.60
2023-04-07T04:29:25.504Z,83.10
2023-04-07T04:32:13.598Z,83.70
2023-04-07T04:35:02.230Z,83.40
2023-04-07T04:37:51.502Z,83.70
2023-04-07T04:40:38.086Z,84.00
2023-04-07T04:43:25.338Z,84.30
2023-04-07T04:46:11.373Z,84.50
2023-04-07T04:49:01.299Z,85.20
2023-04-07T04:51:49.000Z,85.50
2023-04-07T04:54:37.694Z,85.40
2023-04-07T04:57:25.360Z,85.70
2023-04-07T05:00:12.056Z,86.10
2023-04-07T05:03:00.774Z,86.40
2023-04-07T05:05:48.728Z,86.40
2023-04-07T05:08:36.561Z,86.20
2023-04-07T05:11:23.442Z,86.80
2023-04-07T05:14:12.164Z,87.70
2023-04-07T05:17:02.651Z,87.70
2023-04-07T05:19:49.186Z,88.40
2023-04-07T05:22:46.184Z,88.90
2023-04-07T05:25:33.668Z,89.20
2023-04-07T05:28:23.134Z,90.00
2023-04-07T05:31:11.373Z,90.20
2023-04-07T05:33:57.515Z,90.30
2023-04-07T05:36:47.676Z,90.80
2023-04-07T05:39:35.044Z,91.10
2023-04-07T05:42:23.454Z,90.90
2023-04-07T05:45:13.517Z,91.30
2023-04-07T05:48:03.748Z,91.40
2023-04-07T05:50:58.270Z,91.40
2023-04-07T05:53:44.758Z,91.20
2023-04-07T05:56:30.586Z,91.70
2023-04-07T05:59:17.101Z,91.50
2023-04-07T06:02:05.561Z,91.50
2023-04-07T06:04:51.854Z,91.10
2023-04-07T06:07:39.446Z,91.10
2023-04-07T06:10:25.731Z,90.50
2023-04-07T06:13:11.755Z,89.80
2023-04-07T06:15:58.064Z,89.70
2023-04-07T06:18:46.190Z,89.10
2023-04-07T06:21:32.294Z,88.10
2023-04-07T06:24:18.545Z,89.20
2023-04-07T06:27:04.548Z,88.60
2023-04-07T06:29:50.576Z,89.00
2023-04-07T06:32:36.815Z,89.20
2023-04-07T06:35:23.370Z,89.10
2023-04-07T06:38:11.549Z,88.60
2023-04-07T06:40:57.704Z,87.60
2023-04-07T06:43:49.613Z,87.30
2023-04-07T06:46:36.651Z,86.70
2023-04-07T06:49:22.959Z,86.40
2023-04-07T06:52:08.832Z,86.20
2023-04-07T06:54:55.023Z,84.50
2023-04-07T06:57:41.382Z,84.10
2023-04-07T07:00:30.168Z,82.90
2023-04-07T07:03:16.752Z,81.80
2023-04-07T07:06:02.810Z,81.70
2023-04-07T07:08:48.784Z,81.30
2023-04-07T07:11:35.012Z,81.30
2023-04-07T07:14:20.779Z,80.30
2023-04-07T07:17:06.605Z,79.10
2023-04-07T07:19:52.622Z,79.00
2023-04-07T07:22:38.489Z,79.70
2023-04-07T07:25:26.825Z,78.60
2023-04-07T07:28:13.156Z,79.00
2023-04-07T07:30:59.000Z,79.60
2023-04-07T07:33:46.894Z,79.00
2023-04-07T07:36:33.271Z,78.60
2023-04-07T07:39:19.545Z,79.70
2023-04-07T07:42:05.721Z,79.30
2023-04-07T07:44:51.797Z,79.00
2023-04-07T07:47:38.058Z,79.60
2023-04-07T07:50:24.124Z,78.50
2023-04-07T07:53:10.359Z,79.50
2023-04-07T07:55:56.676Z,79.70
2023-04-07T07:58:42.822Z,79.70
2023-04-07T08:01:29.089Z,79.70
2023-04-07T08:04:15.612Z,80.00
2023-04-07T08:07:02.234Z,79.70
2023-04-07T08:09:49.632Z,80.10
2023-04-07T08:12:35.915Z,78.80
2023-04-07T08:15:22.082Z,78.90
2023-04-07T08:18:08.259Z,78.00
2023-04-07T08:20:54.399Z,77.60
2023-04-07T08:23:40.464Z,77.20
2023-04-07T08:26:26.650Z,76.50
2023-04-07T08:29:12.822Z,75.50
2023-04-07T08:31:58.650Z,75.70
2023-04-07T08:34:44.958Z,74.50
2023-04-07T08:37:31.763Z,74.60
2023-04-07T08:40:18.188Z,73.90
2023-04-07T08:43:09.569Z,73.00
2023-04-07T08:45:57.671Z,72.60
2023-04-07T08:48:44.904Z,73.20
2023-04-07T08:51:33.132Z,71.90
2023-04-07T08:54:19.351Z,70.30
2023-04-07T08:57:06.027Z,69.70
2023-04-07T08:59:52.355Z,68.60
2023-04-07T09:02:40.974Z,67.90
2023-04-07T09:05:27.740Z,67.80
2023-04-07T09:08:14.080Z,65.90
2023-04-07T09:11:00.030Z,66.40
2023-04-07T09:13:47.301Z,65.60
2023-04-07T09:16:33.766Z,65.80
2023-04-07T09:19:19.853Z,65.20
2023-04-07T09:22:05.930Z,63.60
2023-04-07T09:24:51.992Z,63.10
2023-04-07T09:27:38.005Z,63.50
2023-04-07T09:30:24.620Z,63.30
2023-04-07T09:33:16.544Z,62.40
2023-04-07T09:36:03.676Z,62.50
2023-04-07T09:38:49.883Z,61.90
2023-04-07T09:41:36.504Z,62.40
2023-04-07T09:44:23.334Z,61.80
2023-04-07T09:47:09.718Z,60.70
2023-04-07T09:49:57.088Z,60.40
2023-04-07T09:52:53.040Z,60.10
2023-04-07T09:55:41.801Z,58.60
2023-04-07T09:58:28.185Z,57.90
2023-04-07T10:01:17.027Z,58.90
2023-04-07T10:04:05.052Z,57.30
2023-04-07T10:06:56.980Z,55.10
2023-04-07T10:09:43.284Z,55.40
2023-04-07T10:12:31.191Z,54.50
2023-04-07T10:15:17.429Z,55.10
2023-04-07T10:18:07.382Z,54.00
2023-04-07T10:20:56.014Z,55.10
2023-04-07T10:23:59.965Z,54.80
2023-04-07T10:26:57.873Z,55.00
2023-04-07T10:29:49.072Z,55.90
2023-04-07T10:32:47.665Z,54.80
2023-04-07T10:36:06.010Z,55.50
2023-04-07T10:39:07.846Z,55.60
2023-04-07T10:41:54.154Z,57.70
2023-04-07T10:44:42.983Z,56.90
2023-04-07T10:47:29.457Z,54.20
2023-04-07T10:50:20.909Z,53.80
2023-04-07T10:53:12.438Z,56.90
2023-04-07T10:55:59.395Z,56.20
2023-04-07T10:58:45.620Z,56.30
2023-04-07T11:01:31.874Z,54.80
2023-04-07T11:04:17.981Z,54.40
2023-04-07T11:07:04.153Z,53.00
2023-04-07T11:09:50.468Z,53.00
2023-04-07T11:12:36.705Z,51.00
2023-04-07T11:15:23.250Z,50.60
2023-04-07T11:18:10.506Z,50.50
2023-04-07T11:21:00.707Z,49.00
2023-04-07T11:23:47.659Z,49.40
2023-04-07T11:26:39.318Z,50.20
2023-04-07T11:29:33.323Z,50.10
2023-04-07T11:32:26.032Z,50.20
2023-04-07T11:35:12.486Z,51.20
2023-04-07T11:37:59.322Z,50.40
2023-04-07T11:40:45.398Z,50.10
2023-04-07T11:43:31.570Z,52.50
2023-04-07T11:46:18.992Z,51.60
2023-04-07T11:49:14.388Z,50.10
2023-04-07T11:52:07.414Z,52.20
2023-04-07T11:54:54.011Z,53.20
2023-04-07T11:57:40.280Z,54.20
2023-04-07T12:00:26.375Z,53.60
2023-04-07T12:03:16.393Z,52.60
2023-04-07T12:06:04.226Z,53.40
2023-04-07T12:08:50.318Z,52.40
2023-04-07T12:11:37.265Z,51.50
2023-04-07T12:14:24.165Z,51.50
2023-04-07T12:17:21.648Z,50.10
2023-04-07T12:20:08.512Z,52.50
2023-04-07T12:22:54.385Z,54.10
2023-04-07T12:25:40.280Z,53.50
2023-04-07T12:28:26.533Z,53.20
2023-04-07T12:31:12.681Z,52.70
2023-04-07T12:33:59.250Z,50.80
2023-04-07T12:36:45.083Z,52.60
2023-04-07T12:39:31.482Z,52.50
2023-04-07T12:42:17.718Z,52.30
2023-04-07T12:45:03.801Z,51.60
2023-04-07T12:47:50.056Z,52.30
2023-04-07T12:50:36.942Z,52.10
2023-04-07T12:53:23.162Z,53.70
2023-04-07T12:56:09.044Z,54.00
2023-04-07T12:58:55.274Z,54.40
2023-04-07T13:01:41.231Z,54.50
2023-04-07T13:04:30.432Z,55.10
2023-04-07T13:07:16.883Z,55.50
2023-04-07T13:10:03.243Z,55.20
2023-04-07T13:12:49.350Z,56.30
2023-04-07T13:15:35.215Z,55.80
2023-04-07T13:18:21.856Z,56.10
2023-04-07T13:21:27.373Z,55.80
2023-04-07T13:24:14.551Z,56.60
2023-04-07T13:27:00.735Z,55.80
2023-04-07T13:29:47.107Z,56.10
2023-04-07T13:32:33.443Z,56.70
2023-04-07T13:35:19.298Z,56.20
2023-04-07T13:38:05.591Z,55.60
2023-04-07T13:40:51.734Z,55.40
2023-04-07T13:43:37.755Z,55.20
2023-04-07T13:46:28.800Z,55.30
2023-04-07T13:49:15.162Z,55.80
2023-04-07T13:52:01.179Z,54.90
2023-04-07T13:54:47.460Z,55.90
2023-04-07T13:57:33.530Z,57.00
2023-04-07T14:00:20.175Z,56.20
2023-04-07T14:03:06.456Z,56.20
2023-04-07T14:05:52.849Z,55.70
2023-04-07T14:08:38.816Z,56.00
2023-04-07T14:11:26.032Z,56.70
2023-04-07T14:14:11.916Z,57.50
2023-04-07T14:16:58.184Z,56.50
2023-04-07T14:19:44.862Z,56.50
2023-04-07T14:22:31.388Z,56.70
2023-04-07T14:25:17.666Z,57.10
2023-04-07T14:28:03.639Z,57.00
2023-04-07T14:30:49.988Z,57.00
2023-04-07T14:33:35.948Z,57.30
2023-04-07T14:36:22.424Z,57.00
2023-04-07T14:39:08.929Z,57.40
2023-04-07T14:41:54.964Z,57.80
2023-04-07T14:44:41.521Z,57.90
2023-04-07T14:47:27.975Z,58.40
2023-04-07T14:50:14.536Z,57.80
2023-04-07T14:53:01.358Z,57.40
2023-04-07T14:55:47.971Z,58.40
2023-04-07T14:58:37.225Z,58.30
2023-04-07T15:01:23.476Z,59.20
2023-04-07T15:04:09.379Z,59.40
2023-04-07T15:06:56.221Z,59.30
2023-04-07T15:09:42.169Z,59.50
2023-04-07T15:12:29.775Z,59.60
2023-04-07T15:15:16.733Z,59.70
2023-04-07T15:18:04.103Z,59.10
2023-04-07T15:20:50.468Z,59.50
2023-04-07T15:23:38.347Z,60.20
2023-04-07T15:26:24.789Z,59.30
2023-04-07T15:29:11.199Z,59.50
2023-04-07T15:31:57.194Z,59.40
2023-04-07T15:34:43.653Z,59.90
2023-04-07T15:37:29.561Z,60.60
2023-04-07T15:40:15.569Z,61.10
2023-04-07T15:43:01.882Z,60.50
2023-04-07T15:45:48.041Z,60.50
2023-04-07T15:48:34.300Z,61.00
2023-04-07T15:51:21.159Z,60.40
2023-04-07T15:54:07.462Z,61.50
2023-04-07T15:56:53.398Z,61.10
2023-04-07T15:59:39.683Z,61.10
2023-04-07T16:02:25.805Z,61.20
2023-04-07T16:05:12.564Z,60.80
2023-04-07T16:07:58.465Z,60.40
2023-04-07T16:10:45.322Z,60.90
2023-04-07T16:13:31.553Z,60.70
2023-04-07T16:16:19.094Z,61.20
2023-04-07T16:19:04.918Z,60.90
2023-04-07T16:21:50.986Z,62.50
2023-04-07T16:24:36.736Z,61.70
2023-04-07T16:27:22.646Z,62.10
2023-04-07T16:30:09.170Z,62.10
2023-04-07T16:32:55.004Z,61.90
2023-04-07T16:35:41.008Z,61.90
2023-04-07T16:38:29.079Z,62.30
2023-04-07T16:41:14.868Z,62.20
2023-04-07T16:44:00.888Z,62.80
2023-04-07T16:46:47.027Z,62.60
2023-04-07T16:49:32.959Z,63.10
2023-04-07T16:52:20.654Z,62.90
2023-04-07T16:55:07.394Z,62.80
2023-04-07T16:57:53.344Z,63.50
2023-04-07T17:00:39.387Z,63.30
2023-04-07T17:03:25.464Z,63.60
2023-04-07T17:06:12.288Z,63.90
2023-04-07T17:08:58.281Z,64.30
2023-04-07T17:11:44.763Z,64.60
2023-04-07T17:14:30.876Z,64.30
2023-04-07T17:17:17.098Z,64.00
2023-04-07T17:20:04.710Z,64.50
2023-04-07T17:22:51.211Z,64.90
2023-04-07T17:25:37.301Z,65.50
2023-04-07T17:28:23.370Z,65.30
2023-04-07T17:31:13.287Z,66.00
2023-04-07T17:33:59.411Z,65.40
2023-04-07T17:36:45.920Z,66.10
2023-04-07T17:39:32.063Z,67.00
2023-04-07T17:42:18.292Z,67.50
2023-04-07T17:45:05.595Z,67.70
2023-04-07T17:47:52.394Z,67.60
2023-04-07T17:50:38.772Z,67.70
2023-04-07T17:53:24.861Z,68.90
2023-04-07T17:56:10.899Z,68.50
2023-04-07T17:58:57.086Z,69.50
2023-04-07T18:01:43.090Z,69.80
2023-04-07T18:04:30.436Z,69.50
2023-04-07T18:07:17.782Z,69.80
2023-04-07T18:10:04.152Z,69.90
2023-04-07T18:12:50.613Z,70.70
2023-04-07T18:15:36.870Z,70.90
2023-04-07T18:18:22.821Z,70.60
2023-04-07T18:21:09.074Z,69.80
2023-04-07T18:23:55.156Z,70.30
2023-04-07T18:26:41.446Z,71.20
2023-04-07T18:29:27.706Z,71.50
2023-04-07T18:32:13.796Z,70.20
2023-04-07T18:34:59.555Z,70.00
2023-04-07T18:37:45.668Z,71.10
2023-04-07T18:40:33.377Z,70.90
2023-04-07T18:43:19.445Z,71.10
2023-04-07T18:46:07.130Z,70.30
2023-04-07T18:48:54.268Z,70.60
2023-04-07T18:51:40.109Z,71.10
2023-04-07T18:54:27.842Z,71.20
2023-04-07T18:57:13.949Z,71.50
2023-04-07T19:00:00.184Z,71.90
2023-04-07T19:02:46.355Z,71.80
2023-04-07T19:05:32.951Z,71.60
2023-04-07T19:08:19.216Z,71.80
2023-04-07T19:11:05.263Z,72.50
2023-04-07T19:13:53.277Z,72.80
2023-04-07T19:16:40.090Z,73.10
2023-04-07T19:19:26.479Z,72.40
2023-04-07T19:22:12.854Z,72.70
2023-04-07T19:24:59.097Z,73.50
2023-04-07T19:27:46.325Z,73.00
2023-04-07T19:30:32.510Z,73.80
2023-04-07T19:33:18.327Z,73.90
2023-04-07T19:36:04.798Z,73.20
2023-04-07T19:38:50.903Z,73.40
2023-04-07T19:41:36.910Z,73.00
2023-04-07T19:44:22.966Z,73.00
2023-04-07T19:47:09.203Z,72.80
2023-04-07T19:49:55.320Z,73.40
2023-04-07T19:52:43.538Z,73.10
2023-04-07T19:55:30.517Z,73.10
2023-04-07T19:58:18.815Z,73.50
2023-04-07T20:01:05.234Z,73.60
2023-04-07T20:03:51.548Z,73.60
2023-04-07T20:06:39.916Z,73.30
2023-04-07T20:09:28.036Z,73.20
2023-04-07T20:12:14.890Z,73.20
2023-04-07T20:15:01.056Z,73.50
2023-04-07T20:17:47.922Z,73.60
2023-04-07T20:20:34.258Z,73.80
2023-04-07T20:23:22.183Z,73.90
2023-04-07T20:26:09.795Z,74.60
2023-04-07T20:28:56.267Z,75.20
2023-04-07T20:31:42.146Z,75.50
2023-04-07T20:34:28.236Z,76.00
2023-04-07T20:37:14.213Z,75.90
2023-04-07T20:40:00.054Z,76.40
2023-04-07T20:42:49.027Z,76.20
2023-04-07T20:45:35.287Z,75.70
2023-04-07T20:48:24.022Z,76.00
2023-04-07T20:51:11.065Z,76.20
2023-04-07T20:53:57.468Z,76.40
2023-04-07T20:56:44.740Z,77.00
2023-04-07T20:59:31.947Z,77.50
2023-04-07T21:02:18.319Z,78.40
2023-04-07T21:05:05.150Z,78.30
2023-04-07T21:07:51.792Z,78.20
2023-04-07T21:10:37.550Z,78.30
2023-04-07T21:13:25.920Z,78.60
2023-04-07T21:16:12.311Z,78.40
2023-04-07T21:18:58.146Z,78.40
2023-04-07T21:21:44.194Z,78.60
2023-04-07T21:24:30.374Z,78.70
2023-04-07T21:27:17.686Z,79.00
2023-04-07T21:30:05.966Z,79.10
2023-04-07T21:32:52.749Z,79.10
2023-04-07T21:35:38.812Z,79.60
2023-04-07T21:38:24.658Z,79.40
2023-04-07T21:41:10.814Z,78.90
2023-04-07T21:43:57.395Z,79.50
2023-04-07T21:46:44.012Z,79.70
2023-04-07T21:49:29.995Z,80.00
2023-04-07T21:52:17.672Z,79.90
2023-04-07T21:55:04.010Z,80.70
2023-04-07T21:57:50.706Z,80.70
2023-04-07T22:00:38.437Z,81.20
2023-04-07T22:03:24.746Z,81.40
2023-04-07T22:06:10.855Z,81.60
2023-04-07T22:09:01.921Z,82.00
2023-04-07T22:11:48.534Z,82.60
2023-04-07T22:14:37.160Z,82.70
2023-04-07T22:17:23.273Z,83.20
2023-04-07T22:20:11.250Z,83.60
2023-04-07T22:22:57.559Z,84.10
2023-04-07T22:25:44.315Z,84.20
2023-04-07T22:28:30.317Z,84.10
2023-04-07T22:31:16.552Z,84.30
2023-04-07T22:34:02.711Z,84.90
2023-04-07T22:36:49.063Z,84.90
2023-04-07T22:39:35.054Z,85.00
2023-04-07T22:42:21.167Z,85.10
2023-04-07T22:45:07.769Z,84.80
2023-04-07T22:47:53.702Z,85.10
2023-04-07T22:50:40.155Z,84.10
2023-04-07T22:53:26.292Z,85.90
2023-04-07T22:56:12.695Z,86.30
2023-04-07T22:59:05.389Z,86.90
2023-04-07T23:01:52.266Z,87.70
2023-04-07T23:04:38.748Z,87.60
2023-04-07T23:07:25.122Z,87.60
2023-04-07T23:10:11.658Z,89.60
2023-04-07T23:12:58.116Z,90.50
2023-04-07T23:15:44.036Z,91.40
2023-04-07T23:18:31.453Z,91.40
2023-04-07T23:21:17.621Z,91.80
2023-04-07T23:24:03.706Z,91.60
2023-04-07T23:26:49.980Z,91.50
2023-04-07T23:29:36.273Z,91.00
2023-04-07T23:32:22.055Z,90.70
2023-04-07T23:35:08.660Z,91.20
2023-04-07T23:37:54.563Z,91.40
2023-04-07T23:40:40.904Z,92.30
2023-04-07T23:43:27.110Z,92.60
2023-04-07T23:46:13.253Z,92.60
2023-04-07T23:48:59.823Z,93.30
2023-04-07T23:51:46.236Z,93.70
2023-04-07T23:54:32.627Z,93.70
2023-04-07T23:57:18.615Z,93.70
